createdAt,value
2022-09-03T00:02:17.047Z,1.73
2022-09-03T00:04:40.166Z,1.90
2022-09-03T00:06:52.259Z,1.75
2022-09-03T00:09:07.020Z,1.58
2022-09-03T00:11:28.439Z,1.83
2022-09-03T00:13:42.352Z,1.80
2022-09-03T00:15:46.011Z,1.60
2022-09-03T00:18:08.198Z,1.90
2022-09-03T00:20:26.145Z,1.67
2022-09-03T00:22:41.211Z,2.00
2022-09-03T00:24:47.266Z,1.90
2022-09-03T00:27:02.058Z,1.90
2022-09-03T00:29:17.058Z,1.90
2022-09-03T00:31:29.130Z,1.98
2022-09-03T00:33:34.625Z,1.70
2022-09-03T00:36:29.016Z,1.88
2022-09-03T00:38:33.038Z,2.08
2022-09-03T00:40:55.349Z,2.00
2022-09-03T00:43:33.949Z,2.33
2022-09-03T00:45:53.341Z,2.20
2022-09-03T00:48:27.987Z,1.88
2022-09-03T00:50:57.357Z,2.08
2022-09-03T00:53:20.203Z,2.00
2022-09-03T00:55:52.893Z,2.08
2022-09-03T00:58:34.168Z,2.28
2022-09-03T01:00:41.971Z,2.40
2022-09-03T01:03:16.582Z,1.90
2022-09-03T01:05:43.941Z,2.10
2022-09-03T01:08:13.036Z,2.05
2022-09-03T01:10:19.710Z,1.88
2022-09-03T01:12:42.352Z,2.25
2022-09-03T01:15:01.923Z,1.70
2022-09-03T01:17:24.976Z,1.83
2022-09-03T01:20:10.013Z,2.20
2022-09-03T01:22:48.021Z,1.83
2022-09-03T01:25:27.769Z,2.20
2022-09-03T01:28:13.880Z,1.60
2022-09-03T01:30:23.018Z,2.00
2022-09-03T01:32:41.020Z,2.00
2022-09-03T01:35:01.642Z,1.80
2022-09-03T01:37:35.133Z,2.28
2022-09-03T01:39:50.181Z,2.20
2022-09-03T01:42:21.254Z,2.25
2022-09-03T01:44:54.634Z,2.13
2022-09-03T01:47:37.754Z,1.73
2022-09-03T01:50:13.535Z,2.20
2022-09-03T01:52:47.024Z,1.75
2022-09-03T01:55:03.924Z,2.10
2022-09-03T01:57:35.657Z,2.28
2022-09-03T02:00:00.995Z,1.77
2022-09-03T02:02:17.888Z,2.00
2022-09-03T02:04:25.059Z,2.20
2022-09-03T02:06:30.047Z,1.83
2022-09-03T02:08:36.463Z,2.22
2022-09-03T02:10:54.513Z,2.35
2022-09-03T02:13:07.961Z,1.70
2022-09-03T02:15:17.152Z,2.20
2022-09-03T02:17:23.060Z,2.28
2022-09-03T02:19:29.871Z,2.15
2022-09-03T02:21:42.018Z,1.88
2022-09-03T02:23:46.069Z,1.65
2022-09-03T02:26:03.008Z,2.30
2022-09-03T02:28:27.411Z,2.22
2022-09-03T02:30:31.093Z,2.00
2022-09-03T02:32:34.987Z,2.53
2022-09-03T02:34:39.192Z,2.45
2022-09-03T02:36:47.023Z,1.88
2022-09-03T02:38:51.055Z,2.50
2022-09-03T02:40:55.834Z,2.10
2022-09-03T02:43:00.648Z,2.28
2022-09-03T02:45:30.970Z,2.40
2022-09-03T02:47:40.005Z,1.88
2022-09-03T02:49:44.010Z,2.30
2022-09-03T02:51:47.800Z,2.20
2022-09-03T02:53:51.815Z,1.85
2022-09-03T02:56:00.220Z,2.15
2022-09-03T02:58:04.022Z,1.92
2022-09-03T03:00:10.191Z,1.90
2022-09-03T03:02:14.541Z,2.10
2022-09-03T03:04:17.982Z,1.80
2022-09-03T03:06:22.719Z,2.25
2022-09-03T03:08:28.466Z,2.40
2022-09-03T03:10:31.857Z,2.20
2022-09-03T03:12:36.162Z,2.38
2022-09-03T03:14:39.564Z,1.88
2022-09-03T03:16:43.272Z,2.38
2022-09-03T03:18:47.999Z,2.28
2022-09-03T03:20:51.980Z,2.40
2022-09-03T03:22:55.489Z,2.00
2022-09-03T03:24:59.999Z,2.80
2022-09-03T03:27:04.006Z,2.47
2022-09-03T03:29:08.052Z,2.25
2022-09-03T03:31:19.132Z,2.75
2022-09-03T03:33:22.784Z,2.00
2022-09-03T03:35:27.006Z,2.72
2022-09-03T03:37:32.151Z,2.53
2022-09-03T03:39:35.660Z,2.67
2022-09-03T03:41:39.114Z,3.13
2022-09-03T03:43:43.735Z,2.60
2022-09-03T03:45:58.767Z,3.00
2022-09-03T03:48:02.087Z,2.75
2022-09-03T03:50:07.241Z,2.35
2022-09-03T03:52:11.139Z,2.83
2022-09-03T03:54:17.673Z,2.50
2022-09-03T03:56:23.348Z,2.50
2022-09-03T03:58:33.016Z,2.30
2022-09-03T04:00:38.068Z,2.20
2022-09-03T04:02:44.059Z,2.20
2022-09-03T04:04:48.805Z,2.33
2022-09-03T04:06:53.003Z,2.47
2022-09-03T04:08:58.654Z,2.10
2022-09-03T04:11:06.156Z,2.40
2022-09-03T04:13:09.950Z,2.50
2022-09-03T04:15:49.265Z,2.10
2022-09-03T04:17:56.685Z,1.90
2022-09-03T04:20:00.986Z,2.15
2022-09-03T04:22:05.057Z,1.80
2022-09-03T04:24:09.019Z,2.50
2022-09-03T04:26:16.176Z,2.63
2022-09-03T04:28:20.493Z,2.50
2022-09-03T04:30:23.964Z,2.40
2022-09-03T04:32:29.020Z,2.33
2022-09-03T04:34:33.060Z,2.30
2022-09-03T04:36:37.229Z,2.25
2022-09-03T04:38:43.176Z,2.30
2022-09-03T04:40:53.530Z,2.38
2022-09-03T04:43:00.698Z,2.22
2022-09-03T04:45:04.929Z,2.20
2022-09-03T04:47:09.659Z,2.20
2022-09-03T04:49:13.139Z,2.22
2022-09-03T04:51:18.480Z,2.10
2022-09-03T04:53:23.209Z,2.22
2022-09-03T04:55:27.717Z,2.15
2022-09-03T04:57:31.056Z,2.22
2022-09-03T04:59:34.717Z,2.10
2022-09-03T05:01:40.658Z,2.40
2022-09-03T05:03:45.188Z,2.35
2022-09-03T05:05:57.029Z,2.10
2022-09-03T05:08:01.196Z,2.40
2022-09-03T05:10:11.753Z,2.22
2022-09-03T05:12:16.007Z,2.03
2022-09-03T05:14:19.154Z,2.20
2022-09-03T05:16:24.053Z,2.40
2022-09-03T05:18:28.587Z,2.20
2022-09-03T05:20:35.477Z,2.00
2022-09-03T05:22:41.001Z,2.38
2022-09-03T05:24:44.809Z,2.10
2022-09-03T05:26:48.212Z,2.20
2022-09-03T05:28:56.813Z,2.50
2022-09-03T05:31:11.714Z,2.25
2022-09-03T05:33:15.172Z,2.60
2022-09-03T05:35:22.965Z,2.50
2022-09-03T05:37:29.222Z,2.30
2022-09-03T05:39:33.021Z,2.38
2022-09-03T05:41:37.134Z,2.40
2022-09-03T05:43:43.200Z,2.30
2022-09-03T05:45:48.255Z,2.40
2022-09-03T05:47:52.554Z,2.63
2022-09-03T05:49:57.011Z,2.50
2022-09-03T05:52:01.174Z,2.72
2022-09-03T05:54:05.051Z,2.53
2022-09-03T05:56:14.047Z,2.70
2022-09-03T05:58:17.899Z,2.55
2022-09-03T06:00:21.796Z,2.08
2022-09-03T06:02:27.102Z,2.35
2022-09-03T06:04:31.135Z,2.70
2022-09-03T06:06:43.143Z,2.53
2022-09-03T06:08:50.017Z,2.50
2022-09-03T06:11:00.164Z,2.40
2022-09-03T06:13:04.013Z,2.50
2022-09-03T06:15:09.215Z,2.58
2022-09-03T06:17:13.088Z,2.30
2022-09-03T06:19:17.067Z,2.20
2022-09-03T06:21:21.741Z,2.67
2022-09-03T06:23:26.753Z,2.60
2022-09-03T06:25:30.960Z,2.30
2022-09-03T06:27:35.913Z,2.28
2022-09-03T06:29:40.068Z,2.35
2022-09-03T06:31:44.377Z,2.40
2022-09-03T06:33:50.014Z,2.03
2022-09-03T06:35:56.225Z,2.60
2022-09-03T06:37:59.530Z,2.42
2022-09-03T06:40:04.263Z,2.47
2022-09-03T06:42:08.259Z,2.40
2022-09-03T06:44:13.478Z,2.33
2022-09-03T06:46:22.810Z,2.20
2022-09-03T06:48:28.564Z,2.47
2022-09-03T06:50:34.659Z,2.25
2022-09-03T06:52:39.165Z,2.45
2022-09-03T06:54:42.240Z,2.35
2022-09-03T06:56:45.100Z,2.30
2022-09-03T06:58:51.575Z,2.47
2022-09-03T07:00:55.143Z,2.22
2022-09-03T07:02:58.656Z,2.40
2022-09-03T07:05:03.191Z,2.42
2022-09-03T07:07:08.399Z,2.42
2022-09-03T07:09:13.452Z,2.53
2022-09-03T07:11:20.944Z,2.58
2022-09-03T07:13:24.742Z,2.70
2022-09-03T07:15:29.353Z,2.20
2022-09-03T07:17:33.574Z,2.80
2022-09-03T07:19:39.462Z,2.45
2022-09-03T07:21:49.256Z,2.60
2022-09-03T07:23:56.652Z,2.63
2022-09-03T07:26:04.141Z,2.50
2022-09-03T07:28:08.664Z,2.30
2022-09-03T07:30:13.190Z,2.70
2022-09-03T07:32:19.124Z,2.35
2022-09-03T07:34:25.676Z,2.35
2022-09-03T07:36:42.189Z,2.45
2022-09-03T07:38:48.866Z,3.00
2022-09-03T07:41:00.655Z,2.70
2022-09-03T07:43:06.194Z,2.50
2022-09-03T07:45:10.237Z,2.90
2022-09-03T07:47:14.013Z,2.90
2022-09-03T07:49:22.478Z,2.38
2022-09-03T07:51:31.254Z,2.80
2022-09-03T07:53:36.795Z,2.60
2022-09-03T07:55:41.077Z,2.50
2022-09-03T07:57:45.010Z,3.08
2022-09-03T07:59:49.002Z,2.80
2022-09-03T08:01:55.015Z,2.45
2022-09-03T08:04:03.119Z,2.78
2022-09-03T08:06:13.399Z,2.88
2022-09-03T08:08:24.287Z,2.90
2022-09-03T08:10:37.911Z,3.10
2022-09-03T08:12:52.385Z,2.90
2022-09-03T08:15:00.575Z,2.95
2022-09-03T08:17:03.948Z,2.80
2022-09-03T08:19:09.019Z,3.10
2022-09-03T08:21:21.330Z,3.53
2022-09-03T08:23:56.224Z,3.40
2022-09-03T08:29:54.062Z,3.28
2022-09-03T08:32:05.603Z,3.17
2022-09-03T08:34:27.017Z,3.08
2022-09-03T08:36:44.001Z,3.42
2022-09-03T08:38:51.044Z,3.38
2022-09-03T08:41:43.329Z,3.78
2022-09-03T08:44:17.004Z,3.80
2022-09-03T08:46:35.539Z,3.28
2022-09-03T08:48:44.516Z,3.38
2022-09-03T08:50:58.261Z,3.58
2022-09-03T08:53:45.255Z,3.20
2022-09-03T08:56:54.921Z,3.08
2022-09-03T08:59:14.335Z,3.10
2022-09-03T09:01:54.891Z,3.17
2022-09-03T09:04:17.495Z,3.17
2022-09-03T09:07:06.324Z,3.33
2022-09-03T09:09:47.619Z,3.03
2022-09-03T09:12:20.701Z,3.35
2022-09-03T09:14:41.304Z,3.30
2022-09-03T09:17:02.215Z,3.50
2022-09-03T09:19:35.024Z,3.38
2022-09-03T09:21:54.008Z,2.45
2022-09-03T09:24:07.586Z,3.30
2022-09-03T09:26:24.184Z,2.88
2022-09-03T09:28:45.302Z,3.42
2022-09-03T09:30:58.156Z,3.40
2022-09-03T09:33:11.423Z,2.78
2022-09-03T09:35:24.354Z,3.10
2022-09-03T09:37:50.463Z,3.20
2022-09-03T09:43:27.042Z,3.08
2022-09-03T09:45:31.987Z,3.50
2022-09-03T09:47:41.527Z,2.70
2022-09-03T09:50:02.003Z,3.10
2022-09-03T09:52:20.864Z,3.17
2022-09-03T09:54:29.004Z,3.35
2022-09-03T09:56:37.797Z,3.28
2022-09-03T09:58:45.280Z,2.80
2022-09-03T10:01:27.332Z,3.00
2022-09-03T10:03:36.295Z,2.60
2022-09-03T10:06:09.591Z,2.63
2022-09-03T10:08:23.638Z,2.58
2022-09-03T10:10:36.250Z,2.33
2022-09-03T10:12:50.591Z,2.40
2022-09-03T10:15:15.948Z,3.15
2022-09-03T10:17:58.016Z,2.60
2022-09-03T10:20:28.935Z,2.88
2022-09-03T10:22:56.472Z,2.85
2022-09-03T10:25:05.216Z,2.80
2022-09-03T10:27:22.034Z,2.75
2022-09-03T10:29:33.625Z,2.72
2022-09-03T10:32:09.675Z,2.90
2022-09-03T10:34:48.186Z,2.70
2022-09-03T10:37:15.937Z,2.50
2022-09-03T10:39:42.629Z,2.45
2022-09-03T10:42:13.744Z,3.30
2022-09-03T10:44:40.605Z,3.03
2022-09-03T10:46:57.596Z,2.88
2022-09-03T10:49:30.283Z,2.95
2022-09-03T10:52:10.440Z,2.72
2022-09-03T10:54:41.454Z,2.47
2022-09-03T10:57:11.574Z,2.50
2022-09-03T10:59:37.069Z,2.63
2022-09-03T11:02:20.419Z,2.60
2022-09-03T11:04:58.725Z,7.82
2022-09-03T11:07:24.336Z,4.97
2022-09-03T11:10:30.815Z,3.20
2022-09-03T11:12:46.022Z,3.45
2022-09-03T11:15:41.482Z,3.00
2022-09-03T11:17:56.005Z,2.90
2022-09-03T11:20:17.177Z,3.00
2022-09-03T11:22:23.052Z,2.67
2022-09-03T11:24:31.524Z,2.83
2022-09-03T11:26:49.047Z,2.70
2022-09-03T11:29:12.052Z,2.90
2022-09-03T11:31:59.632Z,2.67
2022-09-03T11:34:23.270Z,4.45
2022-09-03T11:36:39.053Z,3.40
2022-09-03T11:38:47.070Z,3.63
2022-09-03T11:41:12.066Z,3.03
2022-09-03T11:43:36.767Z,2.60
2022-09-03T11:45:45.226Z,2.90
2022-09-03T11:50:21.180Z,2.75
2022-09-03T11:52:34.008Z,2.85
2022-09-03T11:54:48.044Z,2.60
2022-09-03T11:57:34.052Z,2.80
2022-09-03T11:59:48.756Z,2.90
2022-09-03T12:04:52.846Z,2.73
2022-09-03T12:07:24.325Z,2.72
2022-09-03T12:09:54.755Z,2.78
2022-09-03T12:12:22.623Z,2.50
2022-09-03T12:14:59.070Z,2.90
2022-09-03T12:17:41.826Z,2.95
2022-09-03T12:19:57.904Z,2.65
2022-09-03T12:22:13.885Z,2.40
2022-09-03T12:24:21.049Z,2.25
2022-09-03T12:26:27.125Z,2.63
2022-09-03T12:28:31.641Z,2.70
2022-09-03T12:30:47.467Z,2.45
2022-09-03T12:33:17.988Z,2.55
2022-09-03T12:38:07.815Z,2.47
2022-09-03T12:41:23.562Z,2.33
2022-09-03T12:48:20.806Z,2.95
2022-09-03T12:50:26.004Z,3.92
2022-09-03T12:52:56.197Z,2.42
2022-09-03T12:55:16.144Z,2.60
2022-09-03T12:57:26.799Z,3.60
2022-09-03T12:59:35.949Z,2.53
2022-09-03T13:01:54.802Z,3.38
2022-09-03T13:04:13.762Z,2.42
2022-09-03T13:06:31.282Z,2.42
2022-09-03T13:08:47.981Z,2.20
2022-09-03T13:10:58.124Z,2.60
2022-09-03T13:13:22.998Z,2.13
2022-09-03T13:15:36.258Z,2.05
2022-09-03T13:18:16.504Z,2.30
2022-09-03T13:20:40.005Z,2.45
2022-09-03T13:23:19.010Z,2.40
2022-09-03T13:25:49.047Z,2.30
2022-09-03T13:28:23.703Z,2.20
2022-09-03T13:31:07.232Z,2.33
2022-09-03T13:33:49.048Z,2.50
2022-09-03T13:36:03.054Z,2.28
2022-09-03T13:38:23.087Z,2.30
2022-09-03T13:40:37.123Z,2.40
2022-09-03T13:42:59.566Z,2.33
2022-09-03T13:45:31.146Z,2.43
2022-09-03T13:47:44.461Z,2.40
2022-09-03T13:50:12.733Z,2.45
2022-09-03T13:52:48.871Z,2.30
2022-09-03T13:55:05.011Z,2.50
2022-09-03T13:57:35.509Z,2.28
2022-09-03T14:00:01.118Z,2.55
2022-09-03T14:02:51.031Z,2.55
2022-09-03T14:05:57.891Z,2.42
2022-09-03T14:08:28.840Z,2.60
2022-09-03T14:13:49.136Z,2.60
2022-09-03T14:16:25.042Z,2.35
2022-09-03T14:18:47.224Z,2.50
2022-09-03T14:21:29.023Z,2.75
2022-09-03T14:24:11.821Z,2.58
2022-09-03T14:26:35.733Z,2.67
2022-09-03T14:28:59.785Z,2.67
2022-09-03T14:31:16.215Z,2.60
2022-09-03T14:33:41.060Z,2.60
2022-09-03T14:36:06.677Z,2.92
2022-09-03T14:38:34.892Z,2.42
2022-09-03T14:41:07.431Z,2.60
2022-09-03T14:43:33.182Z,2.40
2022-09-03T14:46:09.155Z,3.05
2022-09-03T14:48:56.825Z,2.60
2022-09-03T14:51:23.793Z,2.40
2022-09-03T14:53:37.053Z,2.35
2022-09-03T14:56:04.154Z,2.58
2022-09-03T14:58:59.466Z,2.70
2022-09-03T15:01:35.663Z,2.80
2022-09-03T15:04:10.877Z,2.92
2022-09-03T15:06:35.008Z,2.60
2022-09-03T15:09:11.522Z,2.85
2022-09-03T15:11:22.183Z,2.72
2022-09-03T15:13:35.435Z,2.47
2022-09-03T15:16:01.699Z,2.70
2022-09-03T15:18:23.262Z,2.45
2022-09-03T15:20:52.001Z,2.60
2022-09-03T15:23:12.254Z,2.72
2022-09-03T15:25:49.217Z,2.78
2022-09-03T15:28:35.178Z,2.50
2022-09-03T15:31:01.112Z,2.38
2022-09-03T15:33:35.147Z,2.63
2022-09-03T15:35:57.282Z,2.90
2022-09-03T15:38:21.869Z,2.58
2022-09-03T15:40:54.462Z,2.60
2022-09-03T15:43:29.859Z,3.08
2022-09-03T15:45:48.277Z,2.75
2022-09-03T15:47:58.784Z,2.75
2022-09-03T15:50:30.225Z,2.65
2022-09-03T15:52:55.026Z,2.42
2022-09-03T15:55:16.650Z,2.78
2022-09-03T15:57:32.073Z,3.10
2022-09-03T15:59:47.481Z,3.00
2022-09-03T16:04:17.715Z,2.50
2022-09-03T16:06:50.032Z,2.83
2022-09-03T16:09:03.061Z,2.47
2022-09-03T16:11:22.992Z,2.80
2022-09-03T16:13:57.922Z,2.60
2022-09-03T16:16:12.076Z,2.63
2022-09-03T16:18:41.667Z,2.88
2022-09-03T16:21:21.828Z,2.67
2022-09-03T16:23:42.043Z,2.53
2022-09-03T16:25:59.138Z,2.60
2022-09-03T16:28:25.939Z,2.58
2022-09-03T16:30:50.151Z,2.75
2022-09-03T16:33:34.286Z,2.78
2022-09-03T16:36:20.025Z,3.05
2022-09-03T16:38:43.941Z,2.78
2022-09-03T16:41:03.831Z,2.65
2022-09-03T16:43:40.712Z,2.80
2022-09-03T16:46:09.116Z,3.00
2022-09-03T16:48:42.379Z,2.80
2022-09-03T16:51:12.056Z,2.95
2022-09-03T16:53:56.244Z,2.53
2022-09-03T16:56:25.755Z,3.20
2022-09-03T16:58:44.941Z,3.00
2022-09-03T17:01:34.140Z,3.53
2022-09-03T17:04:11.009Z,2.90
2022-09-03T17:06:31.438Z,2.83
2022-09-03T17:09:01.554Z,3.28
2022-09-03T17:11:45.223Z,3.10
2022-09-03T17:14:25.965Z,3.17
2022-09-03T17:16:55.380Z,2.90
2022-09-03T17:19:33.997Z,3.30
2022-09-03T17:21:56.638Z,3.03
2022-09-03T17:24:29.411Z,3.00
2022-09-03T17:26:54.024Z,2.92
2022-09-03T17:29:20.226Z,2.85
2022-09-03T17:31:53.112Z,2.95
2022-09-03T17:34:31.070Z,3.17
2022-09-03T17:36:39.038Z,3.17
2022-09-03T17:39:09.131Z,3.78
2022-09-03T17:41:46.034Z,4.32
2022-09-03T17:44:12.321Z,4.60
2022-09-03T17:46:48.961Z,4.07
2022-09-03T17:49:05.047Z,4.03
2022-09-03T17:51:26.087Z,3.80
2022-09-03T17:53:58.993Z,2.92
2022-09-03T17:56:36.014Z,3.38
2022-09-03T17:59:06.305Z,3.50
2022-09-03T18:01:24.195Z,3.83
2022-09-03T18:04:15.044Z,3.33
2022-09-03T18:06:44.133Z,3.40
2022-09-03T18:09:27.441Z,3.55
2022-09-03T18:11:54.066Z,3.30
2022-09-03T18:14:12.752Z,3.40
2022-09-03T18:16:29.957Z,3.67
2022-09-03T18:18:44.009Z,3.47
2022-09-03T18:21:22.013Z,4.15
2022-09-03T18:23:29.072Z,4.07
2022-09-03T18:25:37.173Z,3.88
2022-09-03T18:27:57.376Z,4.50
2022-09-03T18:30:16.827Z,7.90
2022-09-03T18:32:24.845Z,14.85
2022-09-03T18:34:36.235Z,7.95
2022-09-03T18:36:40.844Z,5.70
2022-09-03T18:38:45.010Z,4.00
2022-09-03T18:41:00.029Z,3.67
2022-09-03T18:43:29.225Z,3.60
2022-09-03T18:48:51.069Z,4.88
2022-09-03T18:51:37.263Z,4.60
2022-09-03T18:54:56.767Z,4.60
2022-09-03T18:57:17.533Z,4.80
2022-09-03T19:00:04.024Z,4.47
2022-09-03T19:02:29.302Z,4.13
2022-09-03T19:05:06.225Z,4.25
2022-09-03T19:07:46.185Z,4.25
2022-09-03T19:10:09.739Z,4.40
2022-09-03T19:12:44.770Z,4.20
2022-09-03T19:15:25.424Z,4.70
2022-09-03T19:18:11.423Z,4.43
2022-09-03T19:20:33.855Z,4.20
2022-09-03T19:22:40.947Z,4.25
2022-09-03T19:24:46.057Z,4.00
2022-09-03T19:28:00.196Z,4.30
2022-09-03T19:30:20.733Z,4.10
2022-09-03T19:32:47.556Z,3.95
2022-09-03T19:34:57.083Z,4.22
2022-09-03T19:37:31.053Z,3.55
2022-09-03T19:39:57.799Z,3.83
2022-09-03T19:45:04.958Z,3.97
2022-09-03T19:47:15.513Z,3.53
2022-09-03T19:49:28.028Z,3.45
2022-09-03T19:51:42.778Z,3.72
2022-09-03T19:53:49.952Z,3.72
2022-09-03T19:56:06.622Z,3.85
2022-09-03T19:58:32.563Z,3.67
2022-09-03T20:00:39.761Z,3.63
2022-09-03T20:02:51.508Z,3.85
2022-09-03T20:05:03.444Z,3.55
2022-09-03T20:07:10.832Z,3.95
2022-09-03T20:09:19.655Z,3.95
2022-09-03T20:11:26.933Z,4.35
2022-09-03T20:13:32.166Z,4.30
2022-09-03T20:16:05.038Z,4.22
2022-09-03T20:18:31.262Z,4.05
2022-09-03T20:21:08.975Z,4.20
2022-09-03T20:23:37.765Z,4.20
2022-09-03T20:26:25.073Z,4.00
2022-09-03T20:29:03.335Z,4.50
2022-09-03T20:31:40.537Z,3.97
2022-09-03T20:34:08.341Z,4.10
2022-09-03T20:36:36.076Z,3.88
2022-09-03T20:39:04.474Z,4.00
2022-09-03T20:41:37.156Z,4.13
2022-09-03T20:44:09.432Z,4.53
2022-09-03T20:46:41.887Z,4.13
2022-09-03T20:49:07.521Z,4.13
2022-09-03T20:51:18.992Z,4.35
2022-09-03T20:53:41.004Z,4.25
2022-09-03T20:55:53.001Z,4.13
2022-09-03T20:58:31.012Z,4.90
2022-09-03T21:01:07.641Z,4.40
2022-09-03T21:03:35.981Z,4.75
2022-09-03T21:05:58.723Z,4.70
2022-09-03T21:08:32.623Z,4.70
2022-09-03T21:10:53.517Z,5.07
2022-09-03T21:13:38.330Z,4.85
2022-09-03T21:15:59.652Z,4.55
2022-09-03T21:18:14.984Z,4.68
2022-09-03T21:20:25.443Z,4.70
2022-09-03T21:23:02.045Z,4.70
2022-09-03T21:25:15.319Z,4.78
2022-09-03T21:27:30.045Z,4.90
2022-09-03T21:29:44.136Z,4.80
2022-09-03T21:31:58.048Z,4.88
2022-09-03T21:34:15.077Z,4.50
2022-09-03T21:36:31.529Z,4.28
2022-09-03T21:38:38.760Z,4.78
2022-09-03T21:41:13.205Z,4.68
2022-09-03T21:43:40.550Z,4.50
2022-09-03T21:46:07.097Z,4.70
2022-09-03T21:48:23.812Z,4.32
2022-09-03T21:50:55.233Z,4.53
2022-09-03T21:53:34.487Z,4.45
2022-09-03T21:55:56.190Z,4.60
2022-09-03T21:58:29.493Z,5.22
2022-09-03T22:00:33.188Z,5.40
2022-09-03T22:02:37.657Z,5.05
2022-09-03T22:04:41.029Z,4.93
2022-09-03T22:07:12.546Z,5.10
2022-09-03T22:09:35.184Z,5.40
2022-09-03T22:11:59.175Z,4.70
2022-09-03T22:14:12.015Z,5.20
2022-09-03T22:16:34.606Z,4.85
2022-09-03T22:20:46.217Z,5.15
2022-09-03T22:23:19.805Z,5.10
2022-09-03T22:25:49.066Z,4.80
2022-09-03T22:28:21.383Z,5.38
2022-09-03T22:30:25.040Z,5.17
2022-09-03T22:32:56.020Z,5.47
2022-09-03T22:35:06.181Z,5.43
2022-09-03T22:37:56.002Z,5.65
2022-09-03T22:40:39.880Z,5.53
2022-09-03T22:43:00.384Z,5.07
2022-09-03T22:45:13.712Z,4.93
2022-09-03T22:47:45.479Z,5.05
2022-09-03T22:49:56.117Z,4.80
2022-09-03T22:52:20.421Z,4.75
2022-09-03T22:55:09.586Z,5.07
2022-09-03T22:57:16.854Z,5.13
2022-09-03T22:59:47.067Z,5.32
2022-09-03T23:02:19.861Z,5.50
2022-09-03T23:04:35.455Z,5.20
2022-09-03T23:06:57.992Z,5.22
2022-09-03T23:09:07.826Z,5.28
2022-09-03T23:11:27.481Z,5.25
2022-09-03T23:13:43.792Z,4.82
2022-09-03T23:16:09.745Z,5.13
2022-09-03T23:18:18.748Z,4.85
2022-09-03T23:20:27.674Z,5.07
2022-09-03T23:22:53.172Z,5.00
2022-09-03T23:25:07.215Z,4.97
2022-09-03T23:27:20.140Z,4.95
2022-09-03T23:29:43.193Z,4.68
2022-09-03T23:31:48.114Z,5.13
2022-09-03T23:33:54.017Z,5.00
2022-09-03T23:36:31.608Z,5.20
2022-09-03T23:39:22.701Z,5.38
2022-09-03T23:41:52.975Z,4.95
2022-09-03T23:44:27.028Z,4.47
2022-09-03T23:46:57.026Z,4.78
2022-09-03T23:49:13.218Z,4.90
2022-09-03T23:51:47.083Z,4.93
2022-09-03T23:54:27.184Z,4.88
2022-09-03T23:57:05.684Z,4.55
2022-09-03T23:59:42.272Z,4.88
